createdAt,value
2022-10-04T00:01:17.287Z,397.00
2022-10-04T00:04:01.150Z,397.60
2022-10-04T00:06:28.080Z,383.08
2022-10-04T00:09:05.467Z,394.33
2022-10-04T00:11:37.540Z,394.17
2022-10-04T00:14:14.425Z,394.13
2022-10-04T00:16:43.992Z,382.30
2022-10-04T00:19:19.671Z,382.95
2022-10-04T00:21:58.177Z,389.23
2022-10-04T00:24:26.261Z,393.92
2022-10-04T00:26:52.837Z,390.83
2022-10-04T00:29:37.439Z,391.23
2022-10-04T00:32:09.821Z,395.77
2022-10-04T00:34:36.360Z,376.85
2022-10-04T00:37:13.105Z,381.40
2022-10-04T00:39:45.592Z,381.40
2022-10-04T00:42:27.109Z,379.20
2022-10-04T00:45:07.623Z,376.55
2022-10-04T00:47:46.053Z,369.77
2022-10-04T00:50:26.100Z,367.88
2022-10-04T00:52:56.884Z,369.40
2022-10-04T00:55:33.466Z,374.90
2022-10-04T00:58:02.985Z,372.40
2022-10-04T01:00:33.324Z,379.73
2022-10-04T01:03:14.002Z,391.98
2022-10-04T01:05:49.994Z,388.52
2022-10-04T01:08:24.556Z,381.25
2022-10-04T01:10:56.782Z,386.42
2022-10-04T01:13:31.112Z,378.27
2022-10-04T01:16:03.776Z,385.63
2022-10-04T01:18:33.497Z,388.02
2022-10-04T01:21:09.141Z,389.90
2022-10-04T01:23:49.480Z,394.05
2022-10-04T01:26:34.439Z,389.88
2022-10-04T01:29:08.056Z,376.80
2022-10-04T01:31:38.107Z,383.05
2022-10-04T01:34:06.334Z,379.70
2022-10-04T01:36:34.309Z,368.45
2022-10-04T01:39:01.279Z,362.20
2022-10-04T01:41:40.571Z,369.05
2022-10-04T01:44:11.229Z,365.70
2022-10-04T01:46:40.133Z,365.20
2022-10-04T01:49:12.593Z,364.85
2022-10-04T01:51:49.841Z,374.13
2022-10-04T01:54:21.496Z,374.45
2022-10-04T01:57:00.451Z,364.20
2022-10-04T01:59:33.369Z,368.15
2022-10-04T02:02:06.535Z,367.58
2022-10-04T02:04:38.660Z,374.33
2022-10-04T02:07:13.566Z,366.88
2022-10-04T02:09:45.233Z,370.38
2022-10-04T02:12:16.933Z,372.75
2022-10-04T02:14:52.580Z,365.42
2022-10-04T02:17:27.718Z,356.48
2022-10-04T02:19:55.145Z,363.00
2022-10-04T02:22:23.650Z,361.17
2022-10-04T02:24:50.618Z,361.95
2022-10-04T02:27:17.494Z,364.30
2022-10-04T02:29:44.207Z,362.02
2022-10-04T02:32:32.406Z,366.15
2022-10-04T02:34:59.174Z,361.23
2022-10-04T02:37:28.138Z,365.40
2022-10-04T02:40:40.074Z,362.85
2022-10-04T02:43:15.076Z,360.17
2022-10-04T02:46:12.717Z,359.33
2022-10-04T02:48:43.982Z,362.70
2022-10-04T02:51:19.817Z,363.30
2022-10-04T02:53:52.970Z,362.10
2022-10-04T02:56:20.836Z,369.35
2022-10-04T02:58:47.558Z,369.63
2022-10-04T03:01:26.672Z,372.17
2022-10-04T03:03:55.733Z,379.27
2022-10-04T03:06:28.185Z,374.90
2022-10-04T03:09:05.974Z,380.15
2022-10-04T03:11:40.802Z,381.08
2022-10-04T03:14:14.849Z,383.92
2022-10-04T03:16:44.613Z,372.85
2022-10-04T03:19:13.673Z,378.55
2022-10-04T03:21:43.415Z,369.88
2022-10-04T03:24:16.838Z,379.67
2022-10-04T03:26:46.871Z,368.45
2022-10-04T03:29:16.335Z,363.90
2022-10-04T03:31:46.567Z,377.08
2022-10-04T03:34:17.283Z,368.80
2022-10-04T03:36:45.760Z,372.23
2022-10-04T03:39:18.344Z,368.27
2022-10-04T03:41:45.091Z,370.58
2022-10-04T03:44:16.922Z,378.60
2022-10-04T03:46:45.330Z,375.88
2022-10-04T03:49:17.895Z,370.25
2022-10-04T03:51:49.093Z,370.98
2022-10-04T03:54:23.573Z,380.02
2022-10-04T03:56:52.961Z,362.33
2022-10-04T03:59:20.056Z,376.33
2022-10-04T04:02:03.611Z,374.75
2022-10-04T04:04:42.101Z,364.27
2022-10-04T04:07:18.807Z,366.55
2022-10-04T04:09:52.437Z,355.65
2022-10-04T04:12:39.327Z,357.50
2022-10-04T04:15:11.946Z,362.73
2022-10-04T04:17:41.688Z,362.23
2022-10-04T04:20:41.221Z,354.23
2022-10-04T04:23:11.111Z,346.52
2022-10-04T04:25:42.000Z,352.50
2022-10-04T04:28:20.381Z,350.05
2022-10-04T04:30:50.100Z,349.10
2022-10-04T04:33:41.495Z,347.87
2022-10-04T04:36:11.968Z,333.48
2022-10-04T04:38:58.572Z,336.05
2022-10-04T04:41:27.989Z,344.57
2022-10-04T04:43:54.997Z,341.75
2022-10-04T04:46:27.537Z,337.10
2022-10-04T04:49:04.314Z,345.37
2022-10-04T04:51:33.052Z,355.02
2022-10-04T04:54:03.530Z,346.90
2022-10-04T04:56:30.760Z,347.57
2022-10-04T04:59:01.826Z,346.83
2022-10-04T05:01:44.818Z,339.48
2022-10-04T05:04:12.638Z,335.08
2022-10-04T05:06:45.207Z,330.07
2022-10-04T05:09:25.992Z,344.88
2022-10-04T05:11:56.781Z,350.30
2022-10-04T05:14:23.427Z,353.02
2022-10-04T05:16:52.415Z,334.23
2022-10-04T05:19:24.901Z,327.08
2022-10-04T05:21:56.731Z,338.13
2022-10-04T05:24:28.011Z,320.65
2022-10-04T05:26:58.636Z,348.60
2022-10-04T05:29:28.505Z,342.00
2022-10-04T05:32:45.396Z,331.30
2022-10-04T05:35:17.174Z,352.42
2022-10-04T05:38:00.625Z,334.95
2022-10-04T05:40:39.497Z,335.58
2022-10-04T05:43:29.129Z,334.92
2022-10-04T05:46:18.580Z,328.55
2022-10-04T05:48:53.000Z,335.60
2022-10-04T05:51:23.073Z,340.73
2022-10-04T05:53:50.520Z,337.95
2022-10-04T05:56:42.349Z,335.42
2022-10-04T05:59:30.557Z,334.77
2022-10-04T06:02:12.237Z,337.75
2022-10-04T06:05:12.201Z,332.63
2022-10-04T06:07:59.692Z,346.67
2022-10-04T06:10:32.200Z,333.42
2022-10-04T06:13:36.725Z,327.33
2022-10-04T06:16:06.306Z,310.27
2022-10-04T06:19:06.854Z,320.40
2022-10-04T06:21:56.947Z,331.90
2022-10-04T06:24:27.904Z,315.02
2022-10-04T06:27:19.225Z,312.90
2022-10-04T06:30:03.521Z,310.35
2022-10-04T06:32:49.145Z,308.73
2022-10-04T06:35:42.541Z,309.30
2022-10-04T06:38:23.378Z,312.58
2022-10-04T06:41:46.837Z,304.30
2022-10-04T06:44:37.109Z,318.05
2022-10-04T06:47:11.312Z,325.88
2022-10-04T06:50:12.245Z,337.63
2022-10-04T06:52:58.552Z,356.95
2022-10-04T06:55:34.184Z,320.60
2022-10-04T06:58:18.377Z,316.73
2022-10-04T07:00:54.300Z,324.60
2022-10-04T07:03:27.877Z,352.75
2022-10-04T07:06:04.887Z,316.33
2022-10-04T07:08:59.585Z,317.67
2022-10-04T07:11:32.754Z,314.13
2022-10-04T07:14:02.912Z,320.50
2022-10-04T07:16:56.014Z,319.42
2022-10-04T07:19:39.975Z,319.33
2022-10-04T07:22:06.561Z,310.42
2022-10-04T07:24:51.347Z,302.17
2022-10-04T07:27:24.201Z,314.58
2022-10-04T07:30:06.085Z,319.08
2022-10-04T07:32:38.833Z,326.92
2022-10-04T07:35:14.410Z,325.33
2022-10-04T07:37:58.636Z,346.40
2022-10-04T07:40:31.460Z,350.25
2022-10-04T07:43:04.278Z,326.58
2022-10-04T07:45:34.473Z,335.00
2022-10-04T07:48:23.262Z,341.45
2022-10-04T07:51:09.440Z,337.15
2022-10-04T07:54:14.780Z,334.63
2022-10-04T07:56:55.712Z,336.75
2022-10-04T07:59:37.297Z,341.65
2022-10-04T08:02:31.834Z,333.42
2022-10-04T08:05:20.590Z,336.63
2022-10-04T08:07:56.667Z,376.13
2022-10-04T08:10:23.977Z,348.57
2022-10-04T08:12:53.834Z,346.52
2022-10-04T08:15:37.426Z,342.25
2022-10-04T08:18:19.639Z,347.35
2022-10-04T08:21:04.385Z,334.25
2022-10-04T08:23:40.983Z,343.33
2022-10-04T08:26:15.947Z,346.73
2022-10-04T08:29:18.125Z,341.52
2022-10-04T08:32:23.264Z,326.02
2022-10-04T08:35:16.452Z,343.80
2022-10-04T08:38:06.650Z,320.10
2022-10-04T08:40:50.004Z,330.60
2022-10-04T08:43:56.766Z,319.13
2022-10-04T08:46:40.960Z,340.33
2022-10-04T08:50:05.337Z,318.23
2022-10-04T08:53:04.584Z,316.88
2022-10-04T08:55:48.122Z,335.42
2022-10-04T08:58:48.175Z,347.88
2022-10-04T09:01:54.600Z,342.23
2022-10-04T09:04:50.921Z,345.23
2022-10-04T09:07:46.381Z,344.70
2022-10-04T09:10:36.541Z,332.83
2022-10-04T09:13:31.289Z,323.48
2022-10-04T09:16:47.392Z,319.40
2022-10-04T09:19:53.533Z,306.23
2022-10-04T09:23:05.557Z,285.80
2022-10-04T09:25:59.779Z,292.73
2022-10-04T09:28:45.064Z,280.17
2022-10-04T09:32:00.943Z,297.02
2022-10-04T09:35:06.467Z,256.88
2022-10-04T09:37:36.465Z,255.00
2022-10-04T09:40:27.465Z,277.57
2022-10-04T09:43:27.472Z,294.33
2022-10-04T09:46:22.072Z,299.77
2022-10-04T09:49:17.900Z,294.08
2022-10-04T09:51:56.525Z,289.83
2022-10-04T09:54:51.661Z,295.52
2022-10-04T09:57:29.726Z,293.83
2022-10-04T10:00:11.404Z,267.67
2022-10-04T10:03:13.412Z,267.37
2022-10-04T10:06:08.169Z,303.83
2022-10-04T10:08:49.698Z,308.70
2022-10-04T10:11:56.638Z,280.20
2022-10-04T10:15:08.270Z,262.30
2022-10-04T10:18:00.892Z,261.88
2022-10-04T10:20:28.492Z,277.05
2022-10-04T10:23:01.198Z,264.98
2022-10-04T10:25:56.244Z,272.70
2022-10-04T10:28:40.612Z,271.58
2022-10-04T10:31:51.245Z,258.23
2022-10-04T10:34:35.821Z,245.43
2022-10-04T10:37:40.985Z,273.48
2022-10-04T10:40:16.907Z,252.73
2022-10-04T10:42:59.800Z,263.58
2022-10-04T10:45:43.813Z,265.77
2022-10-04T10:48:35.331Z,249.38
2022-10-04T10:51:34.420Z,257.75
2022-10-04T10:54:34.255Z,270.05
2022-10-04T10:57:18.649Z,270.70
2022-10-04T10:59:57.219Z,261.05
2022-10-04T11:02:48.766Z,251.70
2022-10-04T11:05:37.226Z,238.82
2022-10-04T11:08:37.549Z,226.40
2022-10-04T11:11:39.449Z,258.30
2022-10-04T11:14:14.756Z,250.38
2022-10-04T11:16:47.857Z,245.15
2022-10-04T11:19:46.495Z,245.35
2022-10-04T11:22:42.357Z,255.90
2022-10-04T11:25:46.873Z,242.73
2022-10-04T11:28:27.904Z,234.52
2022-10-04T11:31:19.532Z,219.05
2022-10-04T11:34:02.508Z,219.55
2022-10-04T11:36:53.971Z,213.43
2022-10-04T11:40:02.142Z,198.90
2022-10-04T11:43:06.178Z,203.77
2022-10-04T11:45:42.948Z,244.07
2022-10-04T11:48:27.880Z,265.42
2022-10-04T11:51:10.322Z,256.25
2022-10-04T11:54:07.485Z,234.13
2022-10-04T11:56:49.169Z,246.50
2022-10-04T11:59:32.941Z,255.32
2022-10-04T12:02:17.552Z,240.57
2022-10-04T12:05:18.604Z,271.73
2022-10-04T12:07:54.463Z,246.52
2022-10-04T12:10:29.771Z,237.57
2022-10-04T12:13:19.955Z,260.67
2022-10-04T12:16:01.253Z,235.10
2022-10-04T12:18:34.409Z,236.20
2022-10-04T12:21:19.884Z,230.75
2022-10-04T12:24:09.088Z,212.90
2022-10-04T12:26:38.572Z,214.02
2022-10-04T12:29:24.201Z,213.00
2022-10-04T12:32:00.056Z,197.85
2022-10-04T12:34:40.281Z,208.43
2022-10-04T12:37:19.341Z,218.80
2022-10-04T12:40:14.435Z,219.50
2022-10-04T12:42:59.660Z,209.15
2022-10-04T12:45:52.766Z,214.77
2022-10-04T12:48:43.593Z,240.98
2022-10-04T12:51:22.830Z,191.43
2022-10-04T12:54:01.275Z,172.47
2022-10-04T12:56:45.687Z,189.10
2022-10-04T12:59:25.670Z,190.02
2022-10-04T13:02:21.721Z,186.27
2022-10-04T13:04:59.338Z,186.73
2022-10-04T13:07:36.039Z,238.85
2022-10-04T13:10:44.319Z,225.52
2022-10-04T13:13:44.753Z,225.60
2022-10-04T13:19:27.279Z,202.40
2022-10-04T13:22:00.085Z,206.63
2022-10-04T13:24:58.052Z,185.07
2022-10-04T13:27:49.171Z,205.63
2022-10-04T13:30:23.501Z,188.17
2022-10-04T13:33:26.483Z,168.95
2022-10-04T13:36:05.329Z,172.88
2022-10-04T13:38:55.305Z,193.32
2022-10-04T13:41:52.516Z,175.68
2022-10-04T13:44:30.494Z,155.10
2022-10-04T13:47:34.285Z,150.00
2022-10-04T13:50:22.245Z,177.37
2022-10-04T13:53:15.478Z,171.52
2022-10-04T13:56:04.735Z,197.02
2022-10-04T13:58:52.660Z,186.10
2022-10-04T14:01:37.826Z,173.57
2022-10-04T14:04:25.693Z,161.25
2022-10-04T14:07:23.314Z,170.15
2022-10-04T14:10:19.975Z,164.18
2022-10-04T14:12:49.243Z,167.65
2022-10-04T14:15:50.585Z,140.75
2022-10-04T14:18:46.448Z,126.10
2022-10-04T14:21:26.439Z,135.48
2022-10-04T14:24:32.739Z,137.80
2022-10-04T14:27:05.188Z,140.90
2022-10-04T14:30:00.783Z,140.85
2022-10-04T14:32:45.888Z,158.48
2022-10-04T14:35:29.008Z,142.18
2022-10-04T14:38:23.186Z,153.63
2022-10-04T14:41:35.220Z,166.93
2022-10-04T14:44:31.416Z,162.82
2022-10-04T14:47:36.771Z,177.10
2022-10-04T14:50:26.769Z,174.05
2022-10-04T14:53:02.470Z,185.80
2022-10-04T14:55:49.110Z,179.20
2022-10-04T14:58:32.341Z,188.43
2022-10-04T15:01:01.629Z,190.50
2022-10-04T15:03:38.973Z,185.32
2022-10-04T15:06:12.238Z,204.03
2022-10-04T15:09:16.102Z,201.32
2022-10-04T15:12:21.491Z,203.43
2022-10-04T15:14:59.428Z,222.05
2022-10-04T15:17:29.597Z,223.10
2022-10-04T15:20:06.385Z,235.35
2022-10-04T15:22:46.746Z,252.70
2022-10-04T15:25:40.545Z,252.32
2022-10-04T15:28:44.784Z,249.02
2022-10-04T15:31:17.240Z,259.03
2022-10-04T15:34:14.863Z,244.73
2022-10-04T15:37:03.836Z,239.52
2022-10-04T15:39:58.826Z,241.93
2022-10-04T15:42:37.293Z,243.27
2022-10-04T15:45:17.135Z,240.55
2022-10-04T15:48:14.647Z,239.70
2022-10-04T15:51:08.267Z,245.55
2022-10-04T15:54:08.627Z,246.55
2022-10-04T15:56:41.192Z,241.70
2022-10-04T15:59:36.469Z,227.95
2022-10-04T16:02:36.624Z,253.02
2022-10-04T16:05:15.276Z,260.52
2022-10-04T16:08:09.429Z,247.55
2022-10-04T16:11:14.739Z,254.85
2022-10-04T16:14:20.034Z,254.57
2022-10-04T16:16:59.460Z,263.05
2022-10-04T16:19:53.184Z,278.02
2022-10-04T16:22:38.376Z,264.60
2022-10-04T16:25:23.640Z,304.13
2022-10-04T16:27:56.171Z,303.10
2022-10-04T16:30:45.912Z,334.52
2022-10-04T16:33:32.334Z,318.45
2022-10-04T16:36:18.239Z,310.77
2022-10-04T16:39:22.979Z,315.48
2022-10-04T16:42:01.295Z,338.13
2022-10-04T16:44:50.589Z,324.23
2022-10-04T16:47:33.399Z,316.65
2022-10-04T16:50:04.751Z,307.92
2022-10-04T16:53:02.533Z,307.60
2022-10-04T16:55:53.697Z,315.08
2022-10-04T16:58:26.156Z,314.15
2022-10-04T17:01:26.117Z,304.50
2022-10-04T17:04:05.052Z,312.83
2022-10-04T17:06:33.077Z,307.50
2022-10-04T17:09:02.404Z,308.90
2022-10-04T17:11:44.797Z,315.73
2022-10-04T17:14:49.162Z,319.27
2022-10-04T17:17:42.597Z,331.50
2022-10-04T17:20:26.713Z,323.50
2022-10-04T17:23:24.012Z,316.05
2022-10-04T17:26:08.889Z,319.90
2022-10-04T17:28:53.054Z,318.48
2022-10-04T17:31:38.363Z,325.63
2022-10-04T17:34:10.619Z,310.52
2022-10-04T17:36:47.955Z,306.30
2022-10-04T17:39:23.328Z,310.00
2022-10-04T17:42:10.504Z,313.65
2022-10-04T17:45:11.688Z,304.27
2022-10-04T17:47:59.894Z,307.67
2022-10-04T17:51:11.736Z,308.48
2022-10-04T17:54:00.832Z,297.40
2022-10-04T17:57:12.126Z,314.23
2022-10-04T17:59:44.023Z,320.83
2022-10-04T18:02:20.230Z,299.10
2022-10-04T18:05:17.794Z,299.55
2022-10-04T18:07:52.815Z,305.88
2022-10-04T18:10:40.959Z,310.30
2022-10-04T18:13:19.633Z,313.90
2022-10-04T18:15:59.760Z,312.42
2022-10-04T18:18:37.176Z,321.10
2022-10-04T18:21:27.409Z,324.15
2022-10-04T18:24:17.281Z,321.70
2022-10-04T18:27:16.630Z,320.53
2022-10-04T18:29:58.221Z,319.52
2022-10-04T18:32:30.668Z,319.55
2022-10-04T18:35:27.589Z,308.17
2022-10-04T18:38:09.188Z,303.48
2022-10-04T18:40:43.128Z,286.50
2022-10-04T18:43:34.807Z,282.08
2022-10-04T18:46:16.063Z,300.92
2022-10-04T18:48:56.372Z,301.50
2022-10-04T18:51:30.759Z,321.70
2022-10-04T18:54:29.333Z,325.00
2022-10-04T18:57:23.316Z,324.80
2022-10-04T19:00:20.342Z,349.97
2022-10-04T19:02:57.725Z,335.33
2022-10-04T19:05:40.272Z,338.15
2022-10-04T19:08:35.871Z,338.67
2022-10-04T19:11:16.035Z,346.42
2022-10-04T19:14:14.483Z,364.08
2022-10-04T19:16:58.780Z,360.55
2022-10-04T19:19:53.986Z,347.85
2022-10-04T19:22:42.009Z,338.52
2022-10-04T19:25:27.348Z,344.42
2022-10-04T19:28:11.139Z,342.10
2022-10-04T19:31:05.152Z,328.33
2022-10-04T19:33:41.106Z,348.20
2022-10-04T19:36:25.133Z,345.13
2022-10-04T19:39:31.055Z,337.83
2022-10-04T19:42:01.793Z,347.75
2022-10-04T19:45:08.329Z,342.80
2022-10-04T19:47:53.046Z,350.70
2022-10-04T19:50:28.055Z,336.00
2022-10-04T19:53:07.373Z,326.85
2022-10-04T19:55:51.437Z,323.35
2022-10-04T19:58:40.888Z,315.55
2022-10-04T20:01:23.168Z,313.95
2022-10-04T20:04:11.614Z,315.10
2022-10-04T20:06:40.726Z,307.90
2022-10-04T20:09:41.246Z,316.02
2022-10-04T20:12:31.712Z,308.35
2022-10-04T20:15:16.736Z,314.52
2022-10-04T20:17:45.647Z,306.83
2022-10-04T20:20:38.471Z,300.05
2022-10-04T20:23:07.578Z,291.80
2022-10-04T20:25:43.290Z,304.92
2022-10-04T20:28:11.031Z,296.92
2022-10-04T20:31:01.005Z,280.33
2022-10-04T20:33:37.184Z,290.45
2022-10-04T20:36:32.537Z,274.92
2022-10-04T20:39:03.620Z,274.60
2022-10-04T20:41:30.245Z,289.90
2022-10-04T20:44:01.228Z,285.67
2022-10-04T20:46:38.783Z,278.65
2022-10-04T20:49:15.747Z,281.48
2022-10-04T20:51:49.740Z,278.53
2022-10-04T20:54:20.919Z,294.15
2022-10-04T20:56:49.308Z,287.63
2022-10-04T20:59:17.788Z,286.40
2022-10-04T21:02:01.197Z,295.63
2022-10-04T21:04:49.934Z,307.77
2022-10-04T21:07:21.639Z,295.40
2022-10-04T21:09:48.823Z,287.77
2022-10-04T21:12:31.881Z,275.67
2022-10-04T21:15:25.008Z,295.58
2022-10-04T21:18:10.963Z,308.40
2022-10-04T21:20:52.034Z,300.02
2022-10-04T21:23:36.764Z,296.17
2022-10-04T21:26:56.980Z,292.25
2022-10-04T21:29:24.464Z,307.05
2022-10-04T21:31:51.116Z,305.30
2022-10-04T21:34:34.793Z,311.90
2022-10-04T21:37:04.307Z,316.13
2022-10-04T21:39:38.465Z,325.25
2022-10-04T21:42:05.531Z,332.13
2022-10-04T21:44:32.069Z,339.95
2022-10-04T21:46:58.693Z,338.33
2022-10-04T21:49:25.307Z,358.58
2022-10-04T21:51:51.835Z,353.27
2022-10-04T21:54:18.454Z,358.02
2022-10-04T21:56:45.423Z,360.98
2022-10-04T21:59:12.370Z,355.30
2022-10-04T22:01:38.907Z,346.55
2022-10-04T22:04:05.490Z,347.45
2022-10-04T22:06:32.077Z,337.17
2022-10-04T22:08:58.610Z,346.75
2022-10-04T22:11:25.391Z,334.52
2022-10-04T22:13:52.009Z,348.70
2022-10-04T22:16:18.605Z,371.67
2022-10-04T22:18:45.245Z,359.77
2022-10-04T22:21:11.790Z,370.35
2022-10-04T22:23:40.992Z,368.92
2022-10-04T22:26:19.927Z,349.55
2022-10-04T22:28:49.509Z,335.00
2022-10-04T22:31:18.765Z,342.70
2022-10-04T22:33:47.482Z,328.60
2022-10-04T22:36:39.559Z,345.13
2022-10-04T22:39:09.062Z,338.25
2022-10-04T22:41:47.237Z,339.45
2022-10-04T22:44:37.450Z,335.73
2022-10-04T22:47:10.201Z,335.05
2022-10-04T22:49:40.122Z,334.13
2022-10-04T22:52:14.963Z,337.70
2022-10-04T22:54:45.135Z,336.02
2022-10-04T22:57:14.300Z,334.38
2022-10-04T22:59:44.406Z,334.27
2022-10-04T23:02:17.438Z,345.43
2022-10-04T23:04:52.327Z,340.00
2022-10-04T23:07:19.927Z,332.80
2022-10-04T23:09:46.934Z,332.77
2022-10-04T23:12:14.091Z,338.92
2022-10-04T23:14:40.982Z,342.35
2022-10-04T23:17:22.787Z,340.30
2022-10-04T23:19:56.520Z,355.02
2022-10-04T23:22:27.711Z,350.85
2022-10-04T23:24:55.746Z,345.25
2022-10-04T23:27:23.442Z,341.50
2022-10-04T23:30:02.901Z,346.63
2022-10-04T23:32:31.321Z,349.35
2022-10-04T23:34:59.013Z,337.35
2022-10-04T23:37:29.280Z,332.67
2022-10-04T23:39:55.965Z,339.23
2022-10-04T23:42:32.267Z,334.63
2022-10-04T23:45:00.066Z,346.13
2022-10-04T23:47:34.711Z,339.30
2022-10-04T23:50:02.023Z,343.20
2022-10-04T23:52:37.137Z,340.75
2022-10-04T23:55:21.361Z,369.65
2022-10-04T23:57:48.709Z,354.05
